sensor_id;sensor_type;location;lat;lon;timestamp;temperature;humidity
51486;DHT22;37565;51.352;6.412;2022-10-12T00:00:42;18.10;99.90
51486;DHT22;37565;51.352;6.412;2022-10-12T00:03:10;18.10;99.90
51486;DHT22;37565;51.352;6.412;2022-10-12T00:05:39;18.10;99.90
51486;DHT22;37565;51.352;6.412;2022-10-12T00:08:07;18.10;99.90
51486;DHT22;37565;51.352;6.412;2022-10-12T00:10:39;18.20;99.90
51486;DHT22;37565;51.352;6.412;2022-10-12T00:13:07;18.10;99.90
51486;DHT22;37565;51.352;6.412;2022-10-12T00:15:36;18.20;99.90
51486;DHT22;37565;51.352;6.412;2022-10-12T00:18:06;18.20;99.90
51486;DHT22;37565;51.352;6.412;2022-10-12T00:20:34;18.10;99.90
51486;DHT22;37565;51.352;6.412;2022-10-12T00:23:02;18.10;99.90
51486;DHT22;37565;51.352;6.412;2022-10-12T00:25:30;18.10;99.90
51486;DHT22;37565;51.352;6.412;2022-10-12T00:28:02;18.10;99.90
51486;DHT22;37565;51.352;6.412;2022-10-12T00:30:30;18.10;99.90
51486;DHT22;37565;51.352;6.412;2022-10-12T00:32:58;18.10;99.90
51486;DHT22;37565;51.352;6.412;2022-10-12T00:35:28;18.10;99.90
51486;DHT22;37565;51.352;6.412;2022-10-12T00:37:57;18.20;99.90
51486;DHT22;37565;51.352;6.412;2022-10-12T00:40:24;18.10;99.90
51486;DHT22;37565;51.352;6.412;2022-10-12T00:42:52;18.10;99.90
51486;DHT22;37565;51.352;6.412;2022-10-12T00:45:22;18.10;99.90
51486;DHT22;37565;51.352;6.412;2022-10-12T00:47:53;18.10;99.90
51486;DHT22;37565;51.352;6.412;2022-10-12T00:50:25;18.10;99.90
51486;DHT22;37565;51.352;6.412;2022-10-12T00:52:57;18.10;99.90
51486;DHT22;37565;51.352;6.412;2022-10-12T00:55:31;18.00;99.90
51486;DHT22;37565;51.352;6.412;2022-10-12T00:58:02;18.10;99.90
51486;DHT22;37565;51.352;6.412;2022-10-12T01:00:32;18.00;99.90
51486;DHT22;37565;51.352;6.412;2022-10-12T01:03:00;17.90;99.90
51486;DHT22;37565;51.352;6.412;2022-10-12T01:05:28;18.00;99.90
51486;DHT22;37565;51.352;6.412;2022-10-12T01:07:58;18.00;99.90
51486;DHT22;37565;51.352;6.412;2022-10-12T01:10:28;17.90;99.90
51486;DHT22;37565;51.352;6.412;2022-10-12T01:12:56;18.00;99.90
51486;DHT22;37565;51.352;6.412;2022-10-12T01:15:27;18.00;99.90
51486;DHT22;37565;51.352;6.412;2022-10-12T01:18:01;17.60;99.90
51486;DHT22;37565;51.352;6.412;2022-10-12T01:20:53;18.00;99.90
51486;DHT22;37565;51.352;6.412;2022-10-12T01:23:54;18.00;99.90
51486;DHT22;37565;51.352;6.412;2022-10-12T01:26:56;18.00;99.90
51486;DHT22;37565;51.352;6.412;2022-10-12T01:32:22;18.00;99.90
51486;DHT22;37565;51.352;6.412;2022-10-12T01:34:55;18.00;99.90
51486;DHT22;37565;51.352;6.412;2022-10-12T01:37:33;18.00;99.90
51486;DHT22;37565;51.352;6.412;2022-10-12T01:40:06;18.10;99.90
51486;DHT22;37565;51.352;6.412;2022-10-12T01:42:38;18.00;99.90
51486;DHT22;37565;51.352;6.412;2022-10-12T01:45:09;18.40;99.90
51486;DHT22;37565;51.352;6.412;2022-10-12T01:47:40;18.10;99.90
51486;DHT22;37565;51.352;6.412;2022-10-12T01:50:11;18.00;99.90
51486;DHT22;37565;51.352;6.412;2022-10-12T01:52:47;18.00;99.90
51486;DHT22;37565;51.352;6.412;2022-10-12T01:55:28;18.00;99.90
51486;DHT22;37565;51.352;6.412;2022-10-12T01:58:17;18.10;99.90
51486;DHT22;37565;51.352;6.412;2022-10-12T02:00:54;18.00;99.90
51486;DHT22;37565;51.352;6.412;2022-10-12T02:03:33;18.10;99.90
51486;DHT22;37565;51.352;6.412;2022-10-12T02:06:07;18.00;99.90
51486;DHT22;37565;51.352;6.412;2022-10-12T02:08:40;18.00;99.90
51486;DHT22;37565;51.352;6.412;2022-10-12T02:11:14;18.00;99.90
51486;DHT22;37565;51.352;6.412;2022-10-12T02:13:44;17.90;99.90
51486;DHT22;37565;51.352;6.412;2022-10-12T02:16:18;17.90;99.90
51486;DHT22;37565;51.352;6.412;2022-10-12T02:18:50;17.90;99.90
51486;DHT22;37565;51.352;6.412;2022-10-12T02:21:21;17.90;99.90
51486;DHT22;37565;51.352;6.412;2022-10-12T02:23:50;17.90;99.90
51486;DHT22;37565;51.352;6.412;2022-10-12T02:26:20;17.90;99.90
51486;DHT22;37565;51.352;6.412;2022-10-12T02:28:48;17.90;99.90
51486;DHT22;37565;51.352;6.412;2022-10-12T02:31:23;17.90;99.90
51486;DHT22;37565;51.352;6.412;2022-10-12T02:34:00;17.90;99.90
51486;DHT22;37565;51.352;6.412;2022-10-12T02:36:36;17.90;99.90
51486;DHT22;37565;51.352;6.412;2022-10-12T02:39:10;17.90;99.90
51486;DHT22;37565;51.352;6.412;2022-10-12T02:41:45;17.90;99.90
51486;DHT22;37565;51.352;6.412;2022-10-12T02:44:16;17.90;99.90
51486;DHT22;37565;51.352;6.412;2022-10-12T02:46:47;18.40;99.90
51486;DHT22;37565;51.352;6.412;2022-10-12T02:49:18;18.00;99.90
51486;DHT22;37565;51.352;6.412;2022-10-12T02:51:47;18.00;99.90
51486;DHT22;37565;51.352;6.412;2022-10-12T02:54:15;18.00;99.90
51486;DHT22;37565;51.352;6.412;2022-10-12T02:56:44;18.00;99.90
51486;DHT22;37565;51.352;6.412;2022-10-12T02:59:12;18.00;99.90
51486;DHT22;37565;51.352;6.412;2022-10-12T03:01:40;18.00;99.90
51486;DHT22;37565;51.352;6.412;2022-10-12T03:04:09;18.00;99.90
51486;DHT22;37565;51.352;6.412;2022-10-12T03:06:38;18.00;99.90
51486;DHT22;37565;51.352;6.412;2022-10-12T03:09:08;18.00;99.90
51486;DHT22;37565;51.352;6.412;2022-10-12T03:11:36;18.00;99.90
51486;DHT22;37565;51.352;6.412;2022-10-12T03:14:09;18.00;99.90
51486;DHT22;37565;51.352;6.412;2022-10-12T03:16:38;17.90;99.90
51486;DHT22;37565;51.352;6.412;2022-10-12T03:19:05;18.00;99.90
51486;DHT22;37565;51.352;6.412;2022-10-12T03:21:33;18.00;99.90
51486;DHT22;37565;51.352;6.412;2022-10-12T03:24:03;17.90;99.90
51486;DHT22;37565;51.352;6.412;2022-10-12T03:26:31;17.90;99.90
51486;DHT22;37565;51.352;6.412;2022-10-12T03:28:59;17.90;99.90
51486;DHT22;37565;51.352;6.412;2022-10-12T03:31:27;17.90;99.90
51486;DHT22;37565;51.352;6.412;2022-10-12T03:33:55;17.90;99.90
51486;DHT22;37565;51.352;6.412;2022-10-12T03:36:23;17.90;99.90
51486;DHT22;37565;51.352;6.412;2022-10-12T03:38:51;17.80;99.90
51486;DHT22;37565;51.352;6.412;2022-10-12T03:41:20;17.90;99.90
51486;DHT22;37565;51.352;6.412;2022-10-12T03:43:48;17.80;99.90
51486;DHT22;37565;51.352;6.412;2022-10-12T03:46:16;17.80;99.90
51486;DHT22;37565;51.352;6.412;2022-10-12T03:48:44;17.80;99.90
51486;DHT22;37565;51.352;6.412;2022-10-12T03:51:12;17.80;99.90
51486;DHT22;37565;51.352;6.412;2022-10-12T03:53:40;17.80;99.90
51486;DHT22;37565;51.352;6.412;2022-10-12T03:56:11;17.80;99.90
51486;DHT22;37565;51.352;6.412;2022-10-12T03:58:41;17.80;99.90
51486;DHT22;37565;51.352;6.412;2022-10-12T04:01:09;17.80;99.90
51486;DHT22;37565;51.352;6.412;2022-10-12T04:03:37;17.80;99.90
51486;DHT22;37565;51.352;6.412;2022-10-12T04:06:05;17.80;99.90
51486;DHT22;37565;51.352;6.412;2022-10-12T04:08:33;17.90;99.90
51486;DHT22;37565;51.352;6.412;2022-10-12T04:11:01;17.90;99.90
51486;DHT22;37565;51.352;6.412;2022-10-12T04:13:29;17.90;99.90
51486;DHT22;37565;51.352;6.412;2022-10-12T04:16:02;17.80;99.90
51486;DHT22;37565;51.352;6.412;2022-10-12T04:18:30;17.90;99.90
51486;DHT22;37565;51.352;6.412;2022-10-12T04:20:58;17.90;99.90
51486;DHT22;37565;51.352;6.412;2022-10-12T04:23:27;17.90;99.90
51486;DHT22;37565;51.352;6.412;2022-10-12T04:25:55;17.90;99.90
51486;DHT22;37565;51.352;6.412;2022-10-12T04:28:22;17.90;99.90
51486;DHT22;37565;51.352;6.412;2022-10-12T04:30:50;17.90;99.90
51486;DHT22;37565;51.352;6.412;2022-10-12T04:33:20;17.90;99.90
51486;DHT22;37565;51.352;6.412;2022-10-12T04:35:48;17.80;99.90
51486;DHT22;37565;51.352;6.412;2022-10-12T04:38:16;17.90;99.90
51486;DHT22;37565;51.352;6.412;2022-10-12T04:40:45;17.90;99.90
51486;DHT22;37565;51.352;6.412;2022-10-12T04:43:14;17.90;99.90
51486;DHT22;37565;51.352;6.412;2022-10-12T04:45:42;17.90;99.90
51486;DHT22;37565;51.352;6.412;2022-10-12T04:48:10;17.80;99.90
51486;DHT22;37565;51.352;6.412;2022-10-12T04:50:39;17.80;99.90
51486;DHT22;37565;51.352;6.412;2022-10-12T04:53:07;17.70;99.90
51486;DHT22;37565;51.352;6.412;2022-10-12T04:55:36;17.70;99.90
51486;DHT22;37565;51.352;6.412;2022-10-12T04:58:04;17.70;99.90
51486;DHT22;37565;51.352;6.412;2022-10-12T05:00:32;17.70;99.90
51486;DHT22;37565;51.352;6.412;2022-10-12T05:03:00;17.60;99.90
51486;DHT22;37565;51.352;6.412;2022-10-12T05:05:28;17.60;99.90
51486;DHT22;37565;51.352;6.412;2022-10-12T05:07:57;17.70;99.90
51486;DHT22;37565;51.352;6.412;2022-10-12T05:10:25;17.60;99.90
51486;DHT22;37565;51.352;6.412;2022-10-12T05:12:53;17.60;99.90
51486;DHT22;37565;51.352;6.412;2022-10-12T05:15:21;17.60;99.90
51486;DHT22;37565;51.352;6.412;2022-10-12T05:17:49;18.20;99.90
51486;DHT22;37565;51.352;6.412;2022-10-12T05:20:17;17.70;99.90
51486;DHT22;37565;51.352;6.412;2022-10-12T05:22:45;17.70;99.90
51486;DHT22;37565;51.352;6.412;2022-10-12T05:25:14;17.80;99.90
51486;DHT22;37565;51.352;6.412;2022-10-12T05:27:42;17.80;99.90
51486;DHT22;37565;51.352;6.412;2022-10-12T05:30:11;17.80;99.90
51486;DHT22;37565;51.352;6.412;2022-10-12T05:32:39;17.80;99.90
51486;DHT22;37565;51.352;6.412;2022-10-12T05:35:08;17.80;99.90
51486;DHT22;37565;51.352;6.412;2022-10-12T05:37:36;17.80;99.90
51486;DHT22;37565;51.352;6.412;2022-10-12T05:40:05;17.90;99.90
51486;DHT22;37565;51.352;6.412;2022-10-12T05:42:35;17.90;99.90
51486;DHT22;37565;51.352;6.412;2022-10-12T05:45:04;17.80;99.90
51486;DHT22;37565;51.352;6.412;2022-10-12T05:47:32;17.80;99.90
51486;DHT22;37565;51.352;6.412;2022-10-12T05:50:01;17.80;99.90
51486;DHT22;37565;51.352;6.412;2022-10-12T05:52:29;17.70;99.90
51486;DHT22;37565;51.352;6.412;2022-10-12T05:54:56;17.70;99.90
51486;DHT22;37565;51.352;6.412;2022-10-12T05:57:24;17.70;99.90
51486;DHT22;37565;51.352;6.412;2022-10-12T05:59:54;17.70;99.90
51486;DHT22;37565;51.352;6.412;2022-10-12T06:02:22;17.60;99.90
51486;DHT22;37565;51.352;6.412;2022-10-12T06:04:49;17.60;99.90
51486;DHT22;37565;51.352;6.412;2022-10-12T06:07:17;17.60;99.90
51486;DHT22;37565;51.352;6.412;2022-10-12T06:09:45;17.60;99.90
51486;DHT22;37565;51.352;6.412;2022-10-12T06:12:14;17.60;99.90
51486;DHT22;37565;51.352;6.412;2022-10-12T06:14:42;17.60;99.90
51486;DHT22;37565;51.352;6.412;2022-10-12T06:17:12;17.60;99.90
51486;DHT22;37565;51.352;6.412;2022-10-12T06:19:40;17.60;99.90
51486;DHT22;37565;51.352;6.412;2022-10-12T06:22:08;17.70;99.90
51486;DHT22;37565;51.352;6.412;2022-10-12T06:24:36;17.70;99.90
51486;DHT22;37565;51.352;6.412;2022-10-12T06:27:04;17.70;99.90
51486;DHT22;37565;51.352;6.412;2022-10-12T06:29:31;17.70;99.90
51486;DHT22;37565;51.352;6.412;2022-10-12T06:32:01;17.70;99.90
51486;DHT22;37565;51.352;6.412;2022-10-12T06:34:30;17.80;99.90
51486;DHT22;37565;51.352;6.412;2022-10-12T06:36:58;17.80;99.90
51486;DHT22;37565;51.352;6.412;2022-10-12T06:39:27;17.80;99.90
51486;DHT22;37565;51.352;6.412;2022-10-12T06:41:55;17.90;99.90
51486;DHT22;37565;51.352;6.412;2022-10-12T06:44:23;17.80;99.90
51486;DHT22;37565;51.352;6.412;2022-10-12T06:46:51;17.80;99.90
51486;DHT22;37565;51.352;6.412;2022-10-12T06:49:19;17.80;99.90
51486;DHT22;37565;51.352;6.412;2022-10-12T06:51:49;17.80;99.90
51486;DHT22;37565;51.352;6.412;2022-10-12T06:54:16;17.80;99.90
51486;DHT22;37565;51.352;6.412;2022-10-12T06:56:45;17.80;99.90
51486;DHT22;37565;51.352;6.412;2022-10-12T06:59:13;17.80;99.90
51486;DHT22;37565;51.352;6.412;2022-10-12T07:01:41;17.80;99.90
51486;DHT22;37565;51.352;6.412;2022-10-12T07:04:09;17.80;99.90
51486;DHT22;37565;51.352;6.412;2022-10-12T07:06:37;17.70;99.90
51486;DHT22;37565;51.352;6.412;2022-10-12T07:09:06;17.70;99.90
51486;DHT22;37565;51.352;6.412;2022-10-12T07:11:34;17.70;99.90
51486;DHT22;37565;51.352;6.412;2022-10-12T07:14:02;17.70;99.90
51486;DHT22;37565;51.352;6.412;2022-10-12T07:16:30;17.70;99.90
51486;DHT22;37565;51.352;6.412;2022-10-12T07:18:58;17.70;99.90
51486;DHT22;37565;51.352;6.412;2022-10-12T07:21:26;17.70;99.90
51486;DHT22;37565;51.352;6.412;2022-10-12T07:23:54;17.70;99.90
51486;DHT22;37565;51.352;6.412;2022-10-12T07:26:23;17.70;99.90
51486;DHT22;37565;51.352;6.412;2022-10-12T07:28:51;17.70;99.90
51486;DHT22;37565;51.352;6.412;2022-10-12T07:31:19;17.70;99.90
51486;DHT22;37565;51.352;6.412;2022-10-12T07:33:47;17.70;99.90
51486;DHT22;37565;51.352;6.412;2022-10-12T07:36:15;17.70;99.90
51486;DHT22;37565;51.352;6.412;2022-10-12T07:38:47;17.70;99.90
51486;DHT22;37565;51.352;6.412;2022-10-12T07:41:16;17.70;99.90
51486;DHT22;37565;51.352;6.412;2022-10-12T07:43:45;17.70;99.90
51486;DHT22;37565;51.352;6.412;2022-10-12T07:46:13;17.70;99.90
51486;DHT22;37565;51.352;6.412;2022-10-12T07:48:41;17.70;99.90
51486;DHT22;37565;51.352;6.412;2022-10-12T07:51:15;17.70;99.90
51486;DHT22;37565;51.352;6.412;2022-10-12T07:53:44;17.70;99.90
51486;DHT22;37565;51.352;6.412;2022-10-12T07:56:12;17.70;99.90
51486;DHT22;37565;51.352;6.412;2022-10-12T07:58:42;17.70;99.90
51486;DHT22;37565;51.352;6.412;2022-10-12T08:01:15;17.70;99.90
51486;DHT22;37565;51.352;6.412;2022-10-12T08:03:44;17.80;99.90
51486;DHT22;37565;51.352;6.412;2022-10-12T08:06:13;17.70;99.90
51486;DHT22;37565;51.352;6.412;2022-10-12T08:08:42;17.80;99.90
51486;DHT22;37565;51.352;6.412;2022-10-12T08:11:11;17.40;99.90
51486;DHT22;37565;51.352;6.412;2022-10-12T08:13:40;17.70;99.90
51486;DHT22;37565;51.352;6.412;2022-10-12T08:16:10;17.80;99.90
51486;DHT22;37565;51.352;6.412;2022-10-12T08:18:40;17.70;99.90
51486;DHT22;37565;51.352;6.412;2022-10-12T08:21:10;17.70;99.90
51486;DHT22;37565;51.352;6.412;2022-10-12T08:23:38;17.80;99.90
51486;DHT22;37565;51.352;6.412;2022-10-12T08:26:07;17.80;99.90
51486;DHT22;37565;51.352;6.412;2022-10-12T08:28:35;17.80;99.90
51486;DHT22;37565;51.352;6.412;2022-10-12T08:31:07;17.90;99.90
51486;DHT22;37565;51.352;6.412;2022-10-12T08:33:36;17.90;99.90
51486;DHT22;37565;51.352;6.412;2022-10-12T08:36:06;17.90;99.90
51486;DHT22;37565;51.352;6.412;2022-10-12T08:38:34;18.00;99.90
51486;DHT22;37565;51.352;6.412;2022-10-12T08:41:18;18.00;99.90
51486;DHT22;37565;51.352;6.412;2022-10-12T08:44:11;18.00;99.90
51486;DHT22;37565;51.352;6.412;2022-10-12T08:46:43;18.00;99.90
51486;DHT22;37565;51.352;6.412;2022-10-12T08:49:13;17.90;99.90
51486;DHT22;37565;51.352;6.412;2022-10-12T08:51:47;17.90;99.90
51486;DHT22;37565;51.352;6.412;2022-10-12T08:54:18;17.90;99.90
51486;DHT22;37565;51.352;6.412;2022-10-12T08:56:47;17.90;99.90
51486;DHT22;37565;51.352;6.412;2022-10-12T08:59:16;17.80;99.90
51486;DHT22;37565;51.352;6.412;2022-10-12T09:01:57;17.80;99.90
51486;DHT22;37565;51.352;6.412;2022-10-12T09:04:43;17.80;99.90
51486;DHT22;37565;51.352;6.412;2022-10-12T09:07:16;17.80;99.90
51486;DHT22;37565;51.352;6.412;2022-10-12T09:09:57;17.90;99.90
51486;DHT22;37565;51.352;6.412;2022-10-12T09:12:41;18.00;99.90
51486;DHT22;37565;51.352;6.412;2022-10-12T09:15:15;18.00;99.90
51486;DHT22;37565;51.352;6.412;2022-10-12T09:17:46;18.00;99.90
51486;DHT22;37565;51.352;6.412;2022-10-12T09:20:18;18.10;99.90
51486;DHT22;37565;51.352;6.412;2022-10-12T09:22:49;18.20;99.90
51486;DHT22;37565;51.352;6.412;2022-10-12T09:25:22;18.20;99.90
51486;DHT22;37565;51.352;6.412;2022-10-12T09:27:51;18.30;99.90
51486;DHT22;37565;51.352;6.412;2022-10-12T09:30:20;18.50;99.70
51486;DHT22;37565;51.352;6.412;2022-10-12T09:33:08;18.60;99.20
51486;DHT22;37565;51.352;6.412;2022-10-12T09:35:38;18.90;98.60
51486;DHT22;37565;51.352;6.412;2022-10-12T09:38:09;19.10;97.90
51486;DHT22;37565;51.352;6.412;2022-10-12T09:40:38;19.30;97.10
51486;DHT22;37565;51.352;6.412;2022-10-12T09:43:06;19.00;97.60
51486;DHT22;37565;51.352;6.412;2022-10-12T09:45:36;19.20;96.60
51486;DHT22;37565;51.352;6.412;2022-10-12T09:48:13;19.20;96.60
51486;DHT22;37565;51.352;6.412;2022-10-12T09:50:44;19.10;97.10
51486;DHT22;37565;51.352;6.412;2022-10-12T09:53:27;18.80;97.70
51486;DHT22;37565;51.352;6.412;2022-10-12T09:56:03;18.60;98.20
51486;DHT22;37565;51.352;6.412;2022-10-12T09:58:33;18.50;98.50
51486;DHT22;37565;51.352;6.412;2022-10-12T10:01:20;18.40;98.90
51486;DHT22;37565;51.352;6.412;2022-10-12T10:03:59;18.30;99.20
51486;DHT22;37565;51.352;6.412;2022-10-12T10:06:33;18.20;99.50
51486;DHT22;37565;51.352;6.412;2022-10-12T10:09:03;18.10;99.70
51486;DHT22;37565;51.352;6.412;2022-10-12T10:11:31;18.10;99.80
51486;DHT22;37565;51.352;6.412;2022-10-12T10:14:00;18.00;99.90
51486;DHT22;37565;51.352;6.412;2022-10-12T10:16:29;18.00;99.90
51486;DHT22;37565;51.352;6.412;2022-10-12T10:18:59;18.10;99.90
51486;DHT22;37565;51.352;6.412;2022-10-12T10:21:31;18.00;99.90
51486;DHT22;37565;51.352;6.412;2022-10-12T10:24:01;18.00;99.90
51486;DHT22;37565;51.352;6.412;2022-10-12T10:26:50;17.90;99.90
51486;DHT22;37565;51.352;6.412;2022-10-12T10:29:29;18.00;99.90
51486;DHT22;37565;51.352;6.412;2022-10-12T10:32:16;17.90;99.90
51486;DHT22;37565;51.352;6.412;2022-10-12T10:35:00;17.90;99.90
51486;DHT22;37565;51.352;6.412;2022-10-12T10:37:29;17.90;99.90
51486;DHT22;37565;51.352;6.412;2022-10-12T10:39:58;17.90;99.90
51486;DHT22;37565;51.352;6.412;2022-10-12T10:42:29;17.90;99.90
51486;DHT22;37565;51.352;6.412;2022-10-12T10:45:00;17.90;99.90
51486;DHT22;37565;51.352;6.412;2022-10-12T10:47:31;17.90;99.90
51486;DHT22;37565;51.352;6.412;2022-10-12T10:50:00;17.90;99.90
51486;DHT22;37565;51.352;6.412;2022-10-12T10:52:30;17.90;99.90
51486;DHT22;37565;51.352;6.412;2022-10-12T10:55:15;17.90;99.90
51486;DHT22;37565;51.352;6.412;2022-10-12T10:57:49;17.90;99.90
51486;DHT22;37565;51.352;6.412;2022-10-12T11:00:21;17.90;99.90
51486;DHT22;37565;51.352;6.412;2022-10-12T11:03:10;17.90;99.90
51486;DHT22;37565;51.352;6.412;2022-10-12T11:05:42;17.90;99.90
51486;DHT22;37565;51.352;6.412;2022-10-12T11:08:16;17.90;99.90
51486;DHT22;37565;51.352;6.412;2022-10-12T11:10:48;17.90;99.90
51486;DHT22;37565;51.352;6.412;2022-10-12T11:13:21;17.90;99.90
51486;DHT22;37565;51.352;6.412;2022-10-12T11:15:55;17.90;99.90
51486;DHT22;37565;51.352;6.412;2022-10-12T11:18:30;17.90;99.90
51486;DHT22;37565;51.352;6.412;2022-10-12T11:21:04;17.80;99.90
51486;DHT22;37565;51.352;6.412;2022-10-12T11:23:39;17.90;99.90
51486;DHT22;37565;51.352;6.412;2022-10-12T11:26:14;17.90;99.90
51486;DHT22;37565;51.352;6.412;2022-10-12T11:28:46;17.90;99.90
51486;DHT22;37565;51.352;6.412;2022-10-12T11:31:19;17.90;99.90
51486;DHT22;37565;51.352;6.412;2022-10-12T11:33:49;17.90;99.90
51486;DHT22;37565;51.352;6.412;2022-10-12T11:36:19;17.90;99.90
51486;DHT22;37565;51.352;6.412;2022-10-12T11:38:52;18.00;99.90
51486;DHT22;37565;51.352;6.412;2022-10-12T11:41:25;17.90;99.90
51486;DHT22;37565;51.352;6.412;2022-10-12T11:44:10;17.90;99.90
51486;DHT22;37565;51.352;6.412;2022-10-12T11:46:45;17.90;99.90
51486;DHT22;37565;51.352;6.412;2022-10-12T11:49:18;17.90;99.90
51486;DHT22;37565;51.352;6.412;2022-10-12T11:51:50;17.90;99.90
51486;DHT22;37565;51.352;6.412;2022-10-12T11:54:28;17.90;99.90
51486;DHT22;37565;51.352;6.412;2022-10-12T11:57:00;17.90;99.90
51486;DHT22;37565;51.352;6.412;2022-10-12T11:59:35;17.90;99.90
51486;DHT22;37565;51.352;6.412;2022-10-12T12:02:13;17.90;99.90
51486;DHT22;37565;51.352;6.412;2022-10-12T12:04:44;17.90;99.90
51486;DHT22;37565;51.352;6.412;2022-10-12T12:13:30;18.00;99.90
51486;DHT22;37565;51.352;6.412;2022-10-12T12:16:31;17.90;99.90
51486;DHT22;37565;51.352;6.412;2022-10-12T12:19:13;17.90;99.90
51486;DHT22;37565;51.352;6.412;2022-10-12T12:22:11;18.00;99.90
51486;DHT22;37565;51.352;6.412;2022-10-12T12:24:40;18.00;99.90
51486;DHT22;37565;51.352;6.412;2022-10-12T12:27:21;18.00;99.90
51486;DHT22;37565;51.352;6.412;2022-10-12T12:29:50;18.00;99.90
51486;DHT22;37565;51.352;6.412;2022-10-12T12:32:20;18.00;99.90
51486;DHT22;37565;51.352;6.412;2022-10-12T12:34:52;18.00;99.90
51486;DHT22;37565;51.352;6.412;2022-10-12T12:37:30;18.00;99.90
51486;DHT22;37565;51.352;6.412;2022-10-12T12:39:59;18.00;99.90
51486;DHT22;37565;51.352;6.412;2022-10-12T12:42:28;18.10;99.90
51486;DHT22;37565;51.352;6.412;2022-10-12T12:47:56;18.00;99.90
51486;DHT22;37565;51.352;6.412;2022-10-12T12:50:30;18.10;99.90
51486;DHT22;37565;51.352;6.412;2022-10-12T12:53:04;18.00;99.90
51486;DHT22;37565;51.352;6.412;2022-10-12T12:58:38;18.00;99.90
51486;DHT22;37565;51.352;6.412;2022-10-12T13:01:25;18.00;99.90
51486;DHT22;37565;51.352;6.412;2022-10-12T13:07:45;18.10;99.90
51486;DHT22;37565;51.352;6.412;2022-10-12T13:10:27;18.10;99.90
51486;DHT22;37565;51.352;6.412;2022-10-12T13:13:22;18.10;99.90
51486;DHT22;37565;51.352;6.412;2022-10-12T13:16:11;18.10;99.90
51486;DHT22;37565;51.352;6.412;2022-10-12T13:19:05;18.00;99.90
51486;DHT22;37565;51.352;6.412;2022-10-12T13:21:39;18.10;99.90
51486;DHT22;37565;51.352;6.412;2022-10-12T13:24:13;18.10;99.90
51486;DHT22;37565;51.352;6.412;2022-10-12T13:26:45;18.10;99.90
51486;DHT22;37565;51.352;6.412;2022-10-12T13:29:18;18.10;99.90
51486;DHT22;37565;51.352;6.412;2022-10-12T13:31:51;18.10;99.90
51486;DHT22;37565;51.352;6.412;2022-10-12T13:34:23;18.10;99.90
51486;DHT22;37565;51.352;6.412;2022-10-12T13:36:57;18.10;99.90
51486;DHT22;37565;51.352;6.412;2022-10-12T13:39:27;18.10;99.90
51486;DHT22;37565;51.352;6.412;2022-10-12T13:41:57;18.10;99.90
51486;DHT22;37565;51.352;6.412;2022-10-12T13:44:28;18.10;99.90
51486;DHT22;37565;51.352;6.412;2022-10-12T13:46:57;18.10;99.90
51486;DHT22;37565;51.352;6.412;2022-10-12T13:49:28;18.10;99.90
51486;DHT22;37565;51.352;6.412;2022-10-12T13:52:00;18.10;99.90
51486;DHT22;37565;51.352;6.412;2022-10-12T13:54:36;18.10;99.90
51486;DHT22;37565;51.352;6.412;2022-10-12T13:57:06;18.10;99.90
51486;DHT22;37565;51.352;6.412;2022-10-12T13:59:37;18.10;99.90
51486;DHT22;37565;51.352;6.412;2022-10-12T14:02:15;18.10;99.90
51486;DHT22;37565;51.352;6.412;2022-10-12T14:04:44;18.10;99.90
51486;DHT22;37565;51.352;6.412;2022-10-12T14:07:18;18.10;99.90
51486;DHT22;37565;51.352;6.412;2022-10-12T14:09:47;18.10;99.90
51486;DHT22;37565;51.352;6.412;2022-10-12T14:12:18;18.20;99.90
51486;DHT22;37565;51.352;6.412;2022-10-12T14:14:51;18.20;99.90
51486;DHT22;37565;51.352;6.412;2022-10-12T14:17:20;18.20;99.90
51486;DHT22;37565;51.352;6.412;2022-10-12T14:19:50;18.20;99.90
51486;DHT22;37565;51.352;6.412;2022-10-12T14:22:22;18.20;99.90
51486;DHT22;37565;51.352;6.412;2022-10-12T14:24:55;18.20;99.90
51486;DHT22;37565;51.352;6.412;2022-10-12T14:27:37;18.10;99.90
51486;DHT22;37565;51.352;6.412;2022-10-12T14:30:14;18.20;99.90
51486;DHT22;37565;51.352;6.412;2022-10-12T14:32:49;18.20;99.90
51486;DHT22;37565;51.352;6.412;2022-10-12T14:35:26;18.20;99.90
51486;DHT22;37565;51.352;6.412;2022-10-12T14:37:55;18.20;99.90
51486;DHT22;37565;51.352;6.412;2022-10-12T14:40:32;18.20;99.90
51486;DHT22;37565;51.352;6.412;2022-10-12T14:43:03;18.20;99.90
51486;DHT22;37565;51.352;6.412;2022-10-12T14:45:32;18.20;99.90
51486;DHT22;37565;51.352;6.412;2022-10-12T14:48:01;18.20;99.90
51486;DHT22;37565;51.352;6.412;2022-10-12T14:50:31;18.20;99.90
51486;DHT22;37565;51.352;6.412;2022-10-12T14:53:02;18.20;99.90
51486;DHT22;37565;51.352;6.412;2022-10-12T14:55:33;18.20;99.90
51486;DHT22;37565;51.352;6.412;2022-10-12T14:58:01;18.20;99.90
51486;DHT22;37565;51.352;6.412;2022-10-12T15:00:35;18.20;99.90
51486;DHT22;37565;51.352;6.412;2022-10-12T15:03:04;18.20;99.90
51486;DHT22;37565;51.352;6.412;2022-10-12T15:05:32;18.20;99.90
51486;DHT22;37565;51.352;6.412;2022-10-12T15:08:02;18.20;99.90
51486;DHT22;37565;51.352;6.412;2022-10-12T15:10:35;18.20;99.90
51486;DHT22;37565;51.352;6.412;2022-10-12T15:13:03;18.20;99.90
51486;DHT22;37565;51.352;6.412;2022-10-12T15:15:35;18.20;99.90
51486;DHT22;37565;51.352;6.412;2022-10-12T15:18:05;18.00;99.90
51486;DHT22;37565;51.352;6.412;2022-10-12T15:20:33;18.20;99.90
51486;DHT22;37565;51.352;6.412;2022-10-12T15:23:03;18.20;99.90
51486;DHT22;37565;51.352;6.412;2022-10-12T15:25:38;18.20;99.90
51486;DHT22;37565;51.352;6.412;2022-10-12T15:28:06;18.20;99.90
51486;DHT22;37565;51.352;6.412;2022-10-12T15:30:34;18.20;99.90
51486;DHT22;37565;51.352;6.412;2022-10-12T15:33:22;18.20;99.90
51486;DHT22;37565;51.352;6.412;2022-10-12T15:35:50;18.20;99.90
51486;DHT22;37565;51.352;6.412;2022-10-12T15:38:20;18.20;99.90
51486;DHT22;37565;51.352;6.412;2022-10-12T15:40:48;18.20;99.90
51486;DHT22;37565;51.352;6.412;2022-10-12T15:43:18;18.20;99.90
51486;DHT22;37565;51.352;6.412;2022-10-12T15:45:46;18.20;99.90
51486;DHT22;37565;51.352;6.412;2022-10-12T15:48:14;18.20;99.90
51486;DHT22;37565;51.352;6.412;2022-10-12T15:50:43;18.20;99.90
51486;DHT22;37565;51.352;6.412;2022-10-12T15:53:15;18.20;99.90
51486;DHT22;37565;51.352;6.412;2022-10-12T15:55:44;18.20;99.90
51486;DHT22;37565;51.352;6.412;2022-10-12T15:58:12;18.20;99.90
51486;DHT22;37565;51.352;6.412;2022-10-12T16:00:41;18.10;99.90
51486;DHT22;37565;51.352;6.412;2022-10-12T16:03:13;18.20;99.90
51486;DHT22;37565;51.352;6.412;2022-10-12T16:05:41;18.10;99.90
51486;DHT22;37565;51.352;6.412;2022-10-12T16:08:09;18.20;99.90
51486;DHT22;37565;51.352;6.412;2022-10-12T16:10:39;18.20;99.90
51486;DHT22;37565;51.352;6.412;2022-10-12T16:13:10;18.30;99.90
51486;DHT22;37565;51.352;6.412;2022-10-12T16:15:40;18.40;99.90